createdAt,value
2022-11-16T00:01:52.963Z,100020.46
2022-11-16T00:04:20.893Z,100020.98
2022-11-16T00:06:52.168Z,100021.19
2022-11-16T00:09:22.671Z,100018.34
2022-11-16T00:11:53.086Z,100018.86
2022-11-16T00:14:22.491Z,100023.81
2022-11-16T00:16:51.075Z,100018.94
2022-11-16T00:19:19.552Z,100012.38
2022-11-16T00:21:47.678Z,100005.44
2022-11-16T00:24:17.674Z,100004.77
2022-11-16T00:26:46.558Z,100012.23
2022-11-16T00:29:20.949Z,100015.45
2022-11-16T00:31:50.033Z,100017.13
2022-11-16T00:34:18.733Z,100019.30
2022-11-16T00:36:47.135Z,100021.66
2022-11-16T00:39:17.068Z,100020.80
2022-11-16T00:41:45.409Z,100021.46
2022-11-16T00:44:14.079Z,100017.06
2022-11-16T00:46:42.047Z,100012.00
2022-11-16T00:49:10.427Z,100006.13
2022-11-16T00:51:38.610Z,100006.16
2022-11-16T00:54:08.102Z,100006.70
2022-11-16T00:56:37.097Z,100002.30
2022-11-16T00:59:05.062Z,99994.73
2022-11-16T01:01:33.483Z,99990.05
2022-11-16T01:04:01.613Z,99988.05
2022-11-16T01:06:29.497Z,99992.11
2022-11-16T01:08:57.545Z,99988.88
2022-11-16T01:11:43.873Z,99989.73
2022-11-16T01:14:12.161Z,99979.09
2022-11-16T01:16:40.192Z,99973.19
2022-11-16T01:19:08.160Z,99966.29
2022-11-16T01:21:36.040Z,99960.73
2022-11-16T01:24:04.102Z,99956.39
2022-11-16T01:26:31.960Z,99952.35
2022-11-16T01:29:00.385Z,99951.68
2022-11-16T01:31:28.307Z,99952.69
2022-11-16T01:33:56.275Z,99955.56
2022-11-16T01:36:24.622Z,99958.27
2022-11-16T01:38:52.548Z,99958.27
2022-11-16T01:41:23.044Z,99960.50
2022-11-16T01:43:53.578Z,99955.60
2022-11-16T01:46:22.026Z,99957.14
2022-11-16T01:48:54.948Z,99960.33
2022-11-16T01:51:23.939Z,99961.15
2022-11-16T01:53:52.249Z,99956.42
2022-11-16T01:56:22.015Z,99953.88
2022-11-16T01:58:50.292Z,99955.41
2022-11-16T02:01:18.268Z,99951.52
2022-11-16T02:03:46.225Z,99946.77
2022-11-16T02:06:26.322Z,99949.48
2022-11-16T02:09:38.271Z,99950.33
2022-11-16T02:12:23.443Z,99948.45
2022-11-16T02:15:29.670Z,99945.60
2022-11-16T02:18:06.588Z,99937.83
2022-11-16T02:21:17.252Z,99936.81
2022-11-16T02:24:22.495Z,99932.76
2022-11-16T02:27:08.792Z,99926.68
2022-11-16T02:29:42.904Z,99924.50
2022-11-16T02:32:15.685Z,99927.03
2022-11-16T02:34:50.888Z,99928.21
2022-11-16T02:37:22.575Z,99924.33
2022-11-16T02:39:56.382Z,99920.96
2022-11-16T02:42:31.320Z,99918.43
2022-11-16T02:45:00.975Z,99914.90
2022-11-16T02:47:33.515Z,99907.30
2022-11-16T02:50:08.732Z,99907.64
2022-11-16T02:52:38.057Z,99904.09
2022-11-16T02:55:07.642Z,99902.24
2022-11-16T02:57:51.891Z,99893.14
2022-11-16T03:00:33.780Z,99890.44
2022-11-16T03:03:04.619Z,99889.43
2022-11-16T03:05:41.402Z,99892.30
2022-11-16T03:08:09.257Z,99897.19
2022-11-16T03:10:59.650Z,99896.33
2022-11-16T03:13:31.662Z,99891.73
2022-11-16T03:16:03.801Z,99884.27
2022-11-16T03:18:32.229Z,99889.14
2022-11-16T03:21:17.432Z,99884.92
2022-11-16T03:23:46.355Z,99884.92
2022-11-16T03:26:20.024Z,99886.27
2022-11-16T03:29:08.680Z,99886.30
2022-11-16T03:31:47.535Z,99884.11
2022-11-16T03:34:19.570Z,99879.38
2022-11-16T03:36:50.137Z,99878.35
2022-11-16T03:39:24.303Z,99876.32
2022-11-16T03:41:52.581Z,99874.98
2022-11-16T03:44:21.881Z,99870.10
2022-11-16T03:46:49.947Z,99867.90
2022-11-16T03:49:21.809Z,99865.71
2022-11-16T03:51:50.483Z,99860.64
2022-11-16T03:54:18.269Z,99860.96
2022-11-16T03:56:46.024Z,99857.42
2022-11-16T03:59:13.898Z,99856.91
2022-11-16T04:01:44.738Z,99855.23
2022-11-16T04:04:33.582Z,99850.84
2022-11-16T04:07:20.145Z,99849.83
2022-11-16T04:10:06.785Z,99847.98
2022-11-16T04:12:53.802Z,99846.95
2022-11-16T04:15:39.996Z,99848.98
2022-11-16T04:18:29.178Z,99852.87
2022-11-16T04:21:16.220Z,99853.71
2022-11-16T04:24:03.367Z,99856.06
2022-11-16T04:26:49.861Z,99853.52
2022-11-16T04:29:18.893Z,99858.52
2022-11-16T04:32:05.289Z,99858.52
2022-11-16T04:34:52.102Z,99858.53
2022-11-16T04:37:38.808Z,99852.48
2022-11-16T04:40:07.810Z,99847.10
2022-11-16T04:42:35.666Z,99843.23
2022-11-16T04:45:22.681Z,99842.57
2022-11-16T04:47:51.467Z,99840.39
2022-11-16T04:50:20.209Z,99839.88
2022-11-16T04:52:48.120Z,99842.41
2022-11-16T04:55:15.986Z,99844.79
2022-11-16T04:57:43.852Z,99847.64
2022-11-16T05:00:12.850Z,99848.65
2022-11-16T05:02:40.707Z,99846.80
2022-11-16T05:05:09.471Z,99843.58
2022-11-16T05:07:37.643Z,99842.23
2022-11-16T05:10:07.126Z,99840.36
2022-11-16T05:12:35.862Z,99840.55
2022-11-16T05:15:05.216Z,99837.85
2022-11-16T05:17:33.903Z,99833.45
2022-11-16T05:20:20.472Z,99836.52
2022-11-16T05:22:58.931Z,99829.41
2022-11-16T05:25:27.951Z,99827.05
2022-11-16T05:27:58.071Z,99826.55
2022-11-16T05:30:25.829Z,99827.21
2022-11-16T05:32:53.717Z,99830.76
2022-11-16T05:35:21.524Z,99828.55
2022-11-16T05:37:49.329Z,99827.88
2022-11-16T05:40:17.195Z,99826.36
2022-11-16T05:42:45.067Z,99832.62
2022-11-16T05:45:17.165Z,99835.83
2022-11-16T05:47:47.754Z,99835.15
2022-11-16T05:50:16.178Z,99841.23
2022-11-16T05:52:43.997Z,99841.38
2022-11-16T05:55:11.880Z,99846.12
2022-11-16T05:57:39.732Z,99852.87
2022-11-16T06:00:08.673Z,99851.70
2022-11-16T06:02:36.767Z,99852.39
2022-11-16T06:05:05.346Z,99854.23
2022-11-16T06:07:34.432Z,99858.71
2022-11-16T06:10:02.474Z,99862.71
2022-11-16T06:12:30.299Z,99861.21
2022-11-16T06:14:58.167Z,99858.54
2022-11-16T06:17:26.071Z,99854.00
2022-11-16T06:19:53.858Z,99859.58
2022-11-16T06:22:21.761Z,99862.80
2022-11-16T06:24:49.628Z,99867.22
2022-11-16T06:27:17.413Z,99862.33
2022-11-16T06:29:45.259Z,99854.73
2022-11-16T06:32:13.128Z,99852.55
2022-11-16T06:34:40.994Z,99851.38
2022-11-16T06:37:08.792Z,99849.89
2022-11-16T06:39:36.723Z,99850.07
2022-11-16T06:42:04.996Z,99850.91
2022-11-16T06:44:32.864Z,99851.27
2022-11-16T06:47:00.734Z,99847.59
2022-11-16T06:49:28.693Z,99840.16
2022-11-16T06:51:56.559Z,99837.33
2022-11-16T06:54:24.427Z,99835.14
2022-11-16T06:56:52.292Z,99837.00
2022-11-16T06:59:20.156Z,99838.03
2022-11-16T07:01:48.046Z,99833.48
2022-11-16T07:04:16.004Z,99833.31
2022-11-16T07:06:43.767Z,99833.65
2022-11-16T07:09:11.620Z,99835.70
2022-11-16T07:11:39.590Z,99826.91
2022-11-16T07:14:07.557Z,99821.02
2022-11-16T07:16:36.548Z,99817.31
2022-11-16T07:19:05.390Z,99811.07
2022-11-16T07:21:33.303Z,99809.72
2022-11-16T07:24:01.374Z,99809.58
2022-11-16T07:26:31.352Z,99807.05
2022-11-16T07:29:00.413Z,99805.70
2022-11-16T07:31:28.531Z,99808.43
2022-11-16T07:33:56.268Z,99808.61
2022-11-16T07:36:25.214Z,99802.38
2022-11-16T07:38:53.075Z,99807.30
2022-11-16T07:41:20.936Z,99810.00
2022-11-16T07:43:52.984Z,99808.13
2022-11-16T07:49:16.485Z,99809.48
2022-11-16T07:51:45.882Z,99807.42
2022-11-16T07:54:14.848Z,99809.13
2022-11-16T07:56:42.842Z,99810.30
2022-11-16T07:59:10.915Z,99811.66
2022-11-16T08:01:38.887Z,99810.65
2022-11-16T08:04:06.878Z,99810.30
2022-11-16T08:06:34.817Z,99808.47
2022-11-16T08:09:02.891Z,99806.79
2022-11-16T08:11:30.754Z,99806.46
2022-11-16T08:13:59.041Z,99802.08
2022-11-16T08:16:27.104Z,99799.91
2022-11-16T08:18:54.966Z,99800.93
2022-11-16T08:21:22.834Z,99800.94
2022-11-16T08:23:55.356Z,99803.30
2022-11-16T08:26:27.214Z,99804.32
2022-11-16T08:28:56.732Z,99810.08
2022-11-16T08:31:27.724Z,99811.77
2022-11-16T08:33:56.843Z,99811.09
2022-11-16T08:36:24.982Z,99819.02
2022-11-16T08:38:52.944Z,99816.50
2022-11-16T08:41:21.321Z,99814.98
2022-11-16T08:43:50.922Z,99810.75
2022-11-16T08:46:19.140Z,99809.04
2022-11-16T08:48:47.476Z,99810.73
2022-11-16T08:51:19.589Z,99814.96
2022-11-16T08:53:49.610Z,99812.10
2022-11-16T08:56:18.710Z,99810.23
2022-11-16T08:58:55.278Z,99807.88
2022-11-16T09:01:28.611Z,99807.54
2022-11-16T09:03:57.100Z,99804.02
2022-11-16T09:06:27.043Z,99801.68
2022-11-16T09:08:56.058Z,99799.48
2022-11-16T09:11:25.516Z,99797.98
2022-11-16T09:13:54.834Z,99792.45
2022-11-16T09:16:23.751Z,99794.66
2022-11-16T09:18:52.301Z,99795.83
2022-11-16T09:21:22.506Z,99793.50
2022-11-16T09:23:50.853Z,99790.29
2022-11-16T09:26:21.508Z,99791.66
2022-11-16T09:29:03.403Z,99791.00
2022-11-16T09:31:34.948Z,99794.22
2022-11-16T09:34:03.021Z,99790.16
2022-11-16T09:36:31.202Z,99787.97
2022-11-16T09:42:14.850Z,99780.48
2022-11-16T09:44:57.665Z,99778.29
2022-11-16T09:47:50.638Z,99780.50
2022-11-16T09:50:27.364Z,99783.70
2022-11-16T09:52:58.280Z,99783.38
2022-11-16T09:55:33.365Z,99779.82
2022-11-16T09:58:06.428Z,99779.30
2022-11-16T10:00:36.208Z,99779.80
2022-11-16T10:03:11.144Z,99776.25
2022-11-16T10:05:57.493Z,99777.09
2022-11-16T10:08:38.157Z,99774.04
2022-11-16T10:11:21.280Z,99772.68
2022-11-16T10:14:00.087Z,99772.98
2022-11-16T10:16:44.907Z,99770.61
2022-11-16T10:19:29.495Z,99767.74
2022-11-16T10:22:15.925Z,99767.57
2022-11-16T10:25:00.942Z,99768.42
2022-11-16T10:27:28.966Z,99762.71
2022-11-16T10:30:14.876Z,99762.91
2022-11-16T10:32:59.616Z,99762.90
2022-11-16T10:35:53.800Z,99762.26
2022-11-16T10:38:30.573Z,99761.59
2022-11-16T10:41:05.909Z,99761.41
2022-11-16T10:43:35.735Z,99758.20
2022-11-16T10:46:33.693Z,99753.30
2022-11-16T10:49:07.446Z,99748.74
2022-11-16T10:51:35.365Z,99748.91
2022-11-16T10:54:11.462Z,99745.88
2022-11-16T10:56:42.824Z,99745.04
2022-11-16T10:59:12.335Z,99744.68
2022-11-16T11:01:43.653Z,99739.08
2022-11-16T11:04:17.533Z,99738.56
2022-11-16T11:06:47.335Z,99741.24
2022-11-16T11:09:22.982Z,99741.05
2022-11-16T11:12:22.527Z,99741.23
2022-11-16T11:15:04.079Z,99744.08
2022-11-16T11:17:34.714Z,99745.95
2022-11-16T11:20:05.866Z,99743.92
2022-11-16T11:22:41.915Z,99742.23
2022-11-16T11:25:30.339Z,99738.02
2022-11-16T11:28:23.432Z,99735.64
2022-11-16T11:30:57.629Z,99730.23
2022-11-16T11:33:30.104Z,99733.10
2022-11-16T11:36:07.755Z,99729.40
2022-11-16T11:38:59.488Z,99731.46
2022-11-16T11:41:34.252Z,99736.21
2022-11-16T11:44:19.525Z,99737.23
2022-11-16T11:50:05.944Z,99733.32
2022-11-16T11:52:39.541Z,99730.61
2022-11-16T11:55:08.839Z,99737.92
2022-11-16T11:57:40.367Z,99734.73
2022-11-16T12:00:09.392Z,99736.59
2022-11-16T12:02:49.181Z,99732.56
2022-11-16T12:05:35.324Z,99730.37
2022-11-16T12:08:24.909Z,99732.06
2022-11-16T12:11:03.523Z,99733.60
2022-11-16T12:13:31.484Z,99732.59
2022-11-16T12:16:06.343Z,99730.71
2022-11-16T12:19:15.749Z,99732.58
2022-11-16T12:22:12.906Z,99733.25
2022-11-16T12:24:52.235Z,99730.52
2022-11-16T12:27:46.729Z,99725.11
2022-11-16T12:30:21.366Z,99728.44
2022-11-16T12:33:13.941Z,99728.25
2022-11-16T12:35:52.930Z,99727.39
2022-11-16T12:38:26.051Z,99725.69
2022-11-16T12:41:13.437Z,99725.68
2022-11-16T12:43:47.664Z,99726.67
2022-11-16T12:46:41.727Z,99725.30
2022-11-16T12:49:24.954Z,99723.59
2022-11-16T12:52:14.320Z,99722.58
2022-11-16T12:55:28.398Z,99722.73
2022-11-16T12:58:13.642Z,99722.71
2022-11-16T13:01:19.202Z,99724.55
2022-11-16T13:03:54.281Z,99732.81
2022-11-16T13:06:57.968Z,99735.42
2022-11-16T13:09:30.406Z,99745.09
2022-11-16T13:12:03.514Z,99741.58
2022-11-16T13:14:40.678Z,99743.15
2022-11-16T13:17:15.403Z,99750.63
2022-11-16T13:19:47.614Z,99753.41
2022-11-16T13:22:21.802Z,99755.30
2022-11-16T13:25:00.853Z,99753.50
2022-11-16T13:27:36.365Z,99756.26
2022-11-16T13:30:23.510Z,99760.55
2022-11-16T13:33:46.223Z,99762.82
2022-11-16T13:36:43.662Z,99761.83
2022-11-16T13:39:22.655Z,99763.61
2022-11-16T13:42:07.577Z,99762.20
2022-11-16T13:44:35.339Z,99758.60
2022-11-16T13:47:17.441Z,99756.66
2022-11-16T13:50:16.844Z,99753.04
2022-11-16T13:53:57.739Z,99755.66
2022-11-16T13:55:43.241Z,99760.84
2022-11-16T13:58:21.195Z,99759.46
2022-11-16T14:01:08.911Z,99762.13
2022-11-16T14:03:39.252Z,99761.45
2022-11-16T14:06:30.199Z,99764.08
2022-11-16T14:08:59.662Z,99768.02
2022-11-16T14:11:38.999Z,99771.67
2022-11-16T14:14:11.878Z,99774.27
2022-11-16T14:16:51.317Z,99776.72
2022-11-16T14:19:58.351Z,99779.20
2022-11-16T14:22:28.976Z,99779.30
2022-11-16T14:25:06.557Z,99781.05
2022-11-16T14:27:53.224Z,99778.70
2022-11-16T14:30:24.883Z,99778.96
2022-11-16T14:32:56.232Z,99779.73
2022-11-16T14:35:35.257Z,99781.78
2022-11-16T14:38:24.623Z,99783.44
2022-11-16T14:40:59.436Z,99780.51
2022-11-16T14:43:33.108Z,99780.27
2022-11-16T14:46:26.335Z,99775.80
2022-11-16T14:49:01.447Z,99774.73
2022-11-16T14:51:35.766Z,99774.34
2022-11-16T14:54:32.657Z,99775.85
2022-11-16T14:57:03.651Z,99773.27
2022-11-16T14:59:32.543Z,99774.73
2022-11-16T15:02:21.529Z,99779.55
2022-11-16T15:04:51.723Z,99779.17
2022-11-16T15:07:22.867Z,99779.98
2022-11-16T15:09:54.521Z,99780.29
2022-11-16T15:12:42.458Z,99778.11
2022-11-16T15:15:10.333Z,99777.07
2022-11-16T15:17:53.490Z,99773.00
2022-11-16T15:20:24.282Z,99776.64
2022-11-16T15:22:54.854Z,99774.73
2022-11-16T15:25:28.935Z,99776.41
2022-11-16T15:27:59.858Z,99775.55
2022-11-16T15:30:31.202Z,99775.23
2022-11-16T15:32:59.175Z,99771.20
2022-11-16T15:35:35.842Z,99776.54
2022-11-16T15:38:19.174Z,99780.57
2022-11-16T15:40:53.725Z,99781.20
2022-11-16T15:43:24.636Z,99784.70
2022-11-16T15:45:54.239Z,99789.05
2022-11-16T15:48:24.736Z,99790.71
2022-11-16T15:51:08.555Z,99788.85
2022-11-16T15:53:36.997Z,99791.91
2022-11-16T15:56:26.686Z,99791.92
2022-11-16T15:58:56.878Z,99789.21
2022-11-16T16:01:25.919Z,99791.73
2022-11-16T16:03:59.476Z,99786.37
2022-11-16T16:06:48.751Z,99783.65
2022-11-16T16:09:27.781Z,99783.70
2022-11-16T16:12:18.981Z,99783.36
2022-11-16T16:14:49.406Z,99783.38
2022-11-16T16:17:26.416Z,99785.05
2022-11-16T16:19:59.845Z,99785.95
2022-11-16T16:22:35.877Z,99785.16
2022-11-16T16:25:06.719Z,99782.00
2022-11-16T16:27:40.724Z,99784.38
2022-11-16T16:30:14.793Z,99787.92
2022-11-16T16:32:42.659Z,99789.30
2022-11-16T16:35:20.210Z,99789.64
2022-11-16T16:37:58.049Z,99793.04
2022-11-16T16:40:26.468Z,99796.75
2022-11-16T16:42:56.038Z,99799.92
2022-11-16T16:45:39.055Z,99792.73
2022-11-16T16:48:09.238Z,99792.05
2022-11-16T16:50:37.486Z,99788.35
2022-11-16T16:53:05.725Z,99788.53
2022-11-16T16:55:37.398Z,99789.88
2022-11-16T16:58:06.008Z,99790.55
2022-11-16T17:00:34.182Z,99792.39
2022-11-16T17:03:02.100Z,99794.62
2022-11-16T17:05:32.935Z,99797.83
2022-11-16T17:08:01.255Z,99799.33
2022-11-16T17:10:29.077Z,99803.23
2022-11-16T17:12:57.771Z,99797.33
2022-11-16T17:15:25.735Z,99801.04
2022-11-16T17:17:53.947Z,99800.34
2022-11-16T17:20:21.871Z,99805.22
2022-11-16T17:22:50.043Z,99806.95
2022-11-16T17:25:18.011Z,99807.66
2022-11-16T17:27:45.877Z,99808.52
2022-11-16T17:30:14.486Z,99805.15
2022-11-16T17:32:42.530Z,99803.59
2022-11-16T17:35:10.498Z,99805.09
2022-11-16T17:37:38.364Z,99805.27
2022-11-16T17:40:07.260Z,99800.95
2022-11-16T17:42:38.090Z,99798.13
2022-11-16T17:45:06.943Z,99801.51
2022-11-16T17:47:34.947Z,99796.30
2022-11-16T17:50:04.349Z,99795.48
2022-11-16T17:52:32.140Z,99796.84
2022-11-16T17:55:00.098Z,99800.21
2022-11-16T17:57:27.945Z,99802.75
2022-11-16T17:59:55.809Z,99802.95
2022-11-16T18:02:23.673Z,99798.73
2022-11-16T18:04:51.708Z,99800.45
2022-11-16T18:07:19.695Z,99803.32
2022-11-16T18:09:47.684Z,99806.67
2022-11-16T18:12:15.445Z,99802.47
2022-11-16T18:14:54.910Z,99800.07
2022-11-16T18:17:31.560Z,99796.81
2022-11-16T18:19:59.323Z,99793.11
2022-11-16T18:22:27.184Z,99798.33
2022-11-16T18:24:55.053Z,99792.10
2022-11-16T18:27:23.423Z,99787.88
2022-11-16T18:29:51.289Z,99796.16
2022-11-16T18:32:19.153Z,99796.02
2022-11-16T18:34:46.916Z,99805.98
2022-11-16T18:37:14.781Z,99802.80
2022-11-16T18:39:42.649Z,99807.04
2022-11-16T18:42:12.405Z,99804.52
2022-11-16T18:44:40.226Z,99804.83
2022-11-16T18:47:08.100Z,99806.70
2022-11-16T18:49:35.893Z,99810.75
2022-11-16T18:52:03.922Z,99810.92
2022-11-16T18:54:31.703Z,99808.27
2022-11-16T18:56:59.461Z,99803.06
2022-11-16T18:59:27.313Z,99803.05
2022-11-16T19:01:55.115Z,99800.52
2022-11-16T19:04:23.025Z,99802.98
2022-11-16T19:06:50.854Z,99801.63
2022-11-16T19:09:18.739Z,99800.09
2022-11-16T19:11:46.666Z,99798.59
2022-11-16T19:14:14.456Z,99801.14
2022-11-16T19:16:52.487Z,99799.75
2022-11-16T19:19:24.379Z,99800.08
2022-11-16T19:21:52.335Z,99802.89
2022-11-16T19:24:20.201Z,99799.17
2022-11-16T19:26:47.971Z,99800.51
2022-11-16T19:29:15.783Z,99803.89
2022-11-16T19:31:43.700Z,99809.10
2022-11-16T19:34:13.161Z,99809.12
2022-11-16T19:36:41.068Z,99809.12
2022-11-16T19:39:08.931Z,99812.99
2022-11-16T19:41:36.798Z,99813.49
2022-11-16T19:44:04.768Z,99815.00
2022-11-16T19:46:34.136Z,99816.85
2022-11-16T19:49:02.647Z,99814.81
2022-11-16T19:51:33.292Z,99816.69
2022-11-16T19:54:02.482Z,99821.78
2022-11-16T19:56:30.615Z,99818.55
2022-11-16T19:58:58.451Z,99818.88
2022-11-16T20:01:29.260Z,99821.55
2022-11-16T20:04:00.347Z,99818.84
2022-11-16T20:06:36.645Z,99819.20
2022-11-16T20:09:10.083Z,99819.56
2022-11-16T20:11:41.124Z,99819.23
2022-11-16T20:14:11.673Z,99821.92
2022-11-16T20:16:41.423Z,99825.48
2022-11-16T20:19:10.141Z,99823.94
2022-11-16T20:21:40.345Z,99824.48
2022-11-16T20:24:11.888Z,99824.48
2022-11-16T20:26:44.230Z,99822.50
2022-11-16T20:29:13.899Z,99821.44
2022-11-16T20:31:44.399Z,99820.83
2022-11-16T20:34:14.987Z,99816.30
2022-11-16T20:36:45.617Z,99821.91
2022-11-16T20:39:15.060Z,99820.57
2022-11-16T20:41:44.189Z,99824.60
2022-11-16T20:44:16.779Z,99832.83
2022-11-16T20:46:45.511Z,99829.98
2022-11-16T20:49:13.780Z,99832.73
2022-11-16T20:51:42.002Z,99827.14
2022-11-16T20:54:09.923Z,99824.42
2022-11-16T20:56:37.989Z,99826.06
2022-11-16T20:59:05.856Z,99824.84
2022-11-16T21:01:34.114Z,99824.83
2022-11-16T21:04:05.176Z,99822.82
2022-11-16T21:06:33.606Z,99824.17
2022-11-16T21:09:02.170Z,99820.77
2022-11-16T21:11:52.217Z,99821.91
2022-11-16T21:14:20.738Z,99825.96
2022-11-16T21:16:48.736Z,99821.25
2022-11-16T21:19:17.457Z,99820.42
2022-11-16T21:21:45.316Z,99821.08
2022-11-16T21:24:13.295Z,99819.41
2022-11-16T21:26:41.060Z,99821.26
2022-11-16T21:29:08.917Z,99824.98
2022-11-16T21:31:37.498Z,99823.65
2022-11-16T21:34:07.421Z,99820.65
2022-11-16T21:36:36.321Z,99822.52
2022-11-16T21:39:04.221Z,99812.74
2022-11-16T21:41:32.133Z,99809.67
2022-11-16T21:43:59.902Z,99803.64
2022-11-16T21:46:28.116Z,99801.13
2022-11-16T21:48:56.786Z,99804.31
2022-11-16T21:51:27.202Z,99800.26
2022-11-16T21:53:55.586Z,99803.80
2022-11-16T21:56:25.461Z,99805.48
2022-11-16T21:58:53.853Z,99810.70
2022-11-16T22:01:23.821Z,99813.94
2022-11-16T22:04:11.681Z,99810.90
2022-11-16T22:06:57.967Z,99801.81
2022-11-16T22:09:25.863Z,99803.50
2022-11-16T22:14:57.850Z,99804.03
2022-11-16T22:17:26.228Z,99807.54
2022-11-16T22:19:54.606Z,99808.50
2022-11-16T22:22:23.191Z,99802.10
2022-11-16T22:24:51.666Z,99800.94
2022-11-16T22:27:19.955Z,99802.30
2022-11-16T22:29:47.808Z,99804.52
2022-11-16T22:32:15.678Z,99800.26
2022-11-16T22:34:43.643Z,99799.58
2022-11-16T22:37:11.710Z,99800.23
2022-11-16T22:39:39.578Z,99796.17
2022-11-16T22:42:07.443Z,99801.20
2022-11-16T22:44:35.518Z,99807.39
2022-11-16T22:47:03.793Z,99808.40
2022-11-16T22:49:31.760Z,99811.11
2022-11-16T22:51:59.723Z,99813.63
2022-11-16T22:54:28.616Z,99808.95
2022-11-16T22:56:56.996Z,99800.04
2022-11-16T22:59:24.808Z,99800.21
2022-11-16T23:01:52.624Z,99802.21
2022-11-16T23:04:20.595Z,99799.17
2022-11-16T23:06:49.517Z,99799.34
2022-11-16T23:09:17.654Z,99801.39
2022-11-16T23:12:03.853Z,99800.05
2022-11-16T23:14:50.249Z,99796.18
2022-11-16T23:17:18.118Z,99798.86
2022-11-16T23:20:04.619Z,99797.31
2022-11-16T23:22:50.816Z,99798.33
2022-11-16T23:25:37.620Z,99807.73
2022-11-16T23:28:12.865Z,99805.21
2022-11-16T23:30:41.340Z,99813.96
2022-11-16T23:33:10.002Z,99815.29
2022-11-16T23:35:38.405Z,99810.21
2022-11-16T23:38:07.907Z,99815.24
2022-11-16T23:40:38.227Z,99816.09
2022-11-16T23:43:25.959Z,99817.24
2022-11-16T23:45:53.827Z,99815.89
2022-11-16T23:48:21.688Z,99813.21
2022-11-16T23:50:49.657Z,99814.02
2022-11-16T23:53:17.526Z,99811.50
2022-11-16T23:55:45.392Z,99808.80
2022-11-16T23:58:14.897Z,99810.81
